sensor_id;sensor_type;location;lat;lon;timestamp;temperature;humidity
66710;DHT22;53624;0.000;0.000;2023-02-01T00:00:03;9.20;94.10
66710;DHT22;53624;0.000;0.000;2023-02-01T00:02:31;9.20;94.10
66710;DHT22;53624;0.000;0.000;2023-02-01T00:04:58;9.20;94.20
66710;DHT22;53624;0.000;0.000;2023-02-01T00:07:26;9.20;94.10
66710;DHT22;53624;0.000;0.000;2023-02-01T00:09:53;9.20;94.10
66710;DHT22;53624;0.000;0.000;2023-02-01T00:12:22;9.20;94.10
66710;DHT22;53624;0.000;0.000;2023-02-01T00:14:50;9.20;94.10
66710;DHT22;53624;0.000;0.000;2023-02-01T00:17:17;9.10;94.10
66710;DHT22;53624;0.000;0.000;2023-02-01T00:19:45;9.10;94.10
66710;DHT22;53624;0.000;0.000;2023-02-01T00:22:12;9.10;94.10
66710;DHT22;53624;0.000;0.000;2023-02-01T00:24:40;9.10;94.10
66710;DHT22;53624;0.000;0.000;2023-02-01T00:27:07;9.00;94.10
66710;DHT22;53624;0.000;0.000;2023-02-01T00:29:36;9.00;94.10
66710;DHT22;53624;0.000;0.000;2023-02-01T00:32:03;9.10;94.10
66710;DHT22;53624;0.000;0.000;2023-02-01T00:34:31;9.00;94.10
66710;DHT22;53624;0.000;0.000;2023-02-01T00:36:58;9.00;94.20
66710;DHT22;53624;0.000;0.000;2023-02-01T00:39:26;9.00;94.20
66710;DHT22;53624;0.000;0.000;2023-02-01T00:41:53;9.00;94.20
66710;DHT22;53624;0.000;0.000;2023-02-01T00:44:21;9.00;94.20
66710;DHT22;53624;0.000;0.000;2023-02-01T00:46:50;9.00;94.20
66710;DHT22;53624;0.000;0.000;2023-02-01T00:49:17;9.00;94.20
66710;DHT22;53624;0.000;0.000;2023-02-01T00:51:45;9.00;94.20
66710;DHT22;53624;0.000;0.000;2023-02-01T00:54:12;8.90;94.20
66710;DHT22;53624;0.000;0.000;2023-02-01T00:56:40;8.90;94.20
66710;DHT22;53624;0.000;0.000;2023-02-01T00:59:07;8.90;94.20
66710;DHT22;53624;0.000;0.000;2023-02-01T01:01:37;8.90;94.30
66710;DHT22;53624;0.000;0.000;2023-02-01T01:04:06;8.90;94.30
66710;DHT22;53624;0.000;0.000;2023-02-01T01:06:34;8.90;94.30
66710;DHT22;53624;0.000;0.000;2023-02-01T01:09:03;8.90;94.30
66710;DHT22;53624;0.000;0.000;2023-02-01T01:11:32;8.90;94.30
66710;DHT22;53624;0.000;0.000;2023-02-01T01:14:00;8.90;94.40
66710;DHT22;53624;0.000;0.000;2023-02-01T01:16:28;8.90;94.40
66710;DHT22;53624;0.000;0.000;2023-02-01T01:18:56;8.90;94.40
66710;DHT22;53624;0.000;0.000;2023-02-01T01:21:25;8.90;94.40
66710;DHT22;53624;0.000;0.000;2023-02-01T01:23:53;8.90;94.40
66710;DHT22;53624;0.000;0.000;2023-02-01T01:26:21;8.90;94.50
66710;DHT22;53624;0.000;0.000;2023-02-01T01:28:49;8.90;94.40
66710;DHT22;53624;0.000;0.000;2023-02-01T01:31:17;8.90;94.40
66710;DHT22;53624;0.000;0.000;2023-02-01T01:33:47;8.80;94.40
66710;DHT22;53624;0.000;0.000;2023-02-01T01:36:15;8.80;94.40
66710;DHT22;53624;0.000;0.000;2023-02-01T01:38:44;8.80;94.40
66710;DHT22;53624;0.000;0.000;2023-02-01T01:41:12;8.80;94.40
66710;DHT22;53624;0.000;0.000;2023-02-01T01:43:45;8.90;94.50
66710;DHT22;53624;0.000;0.000;2023-02-01T01:46:15;8.80;94.50
66710;DHT22;53624;0.000;0.000;2023-02-01T01:48:42;8.80;94.50
66710;DHT22;53624;0.000;0.000;2023-02-01T01:51:10;8.80;94.50
66710;DHT22;53624;0.000;0.000;2023-02-01T01:53:42;8.80;94.50
66710;DHT22;53624;0.000;0.000;2023-02-01T01:56:12;8.80;94.50
66710;DHT22;53624;0.000;0.000;2023-02-01T01:58:40;8.80;94.50
66710;DHT22;53624;0.000;0.000;2023-02-01T02:01:07;8.80;94.50
66710;DHT22;53624;0.000;0.000;2023-02-01T02:03:37;8.80;94.50
66710;DHT22;53624;0.000;0.000;2023-02-01T02:06:08;8.80;94.60
66710;DHT22;53624;0.000;0.000;2023-02-01T02:08:39;8.80;94.60
66710;DHT22;53624;0.000;0.000;2023-02-01T02:11:07;8.80;94.60
66710;DHT22;53624;0.000;0.000;2023-02-01T02:13:37;8.80;94.60
66710;DHT22;53624;0.000;0.000;2023-02-01T02:16:12;8.80;94.60
66710;DHT22;53624;0.000;0.000;2023-02-01T02:18:44;8.80;94.60
66710;DHT22;53624;0.000;0.000;2023-02-01T02:21:15;8.80;95.00
66710;DHT22;53624;0.000;0.000;2023-02-01T02:24:09;8.80;94.70
66710;DHT22;53624;0.000;0.000;2023-02-01T02:26:52;8.80;94.70
66710;DHT22;53624;0.000;0.000;2023-02-01T02:29:49;8.80;94.70
66710;DHT22;53624;0.000;0.000;2023-02-01T02:35:19;8.80;94.80
66710;DHT22;53624;0.000;0.000;2023-02-01T02:37:53;8.80;94.80
66710;DHT22;53624;0.000;0.000;2023-02-01T02:40:22;8.80;94.80
66710;DHT22;53624;0.000;0.000;2023-02-01T02:42:56;8.70;94.80
66710;DHT22;53624;0.000;0.000;2023-02-01T02:45:41;8.80;94.80
66710;DHT22;53624;0.000;0.000;2023-02-01T02:48:29;8.80;94.80
66710;DHT22;53624;0.000;0.000;2023-02-01T02:51:00;8.80;94.80
66710;DHT22;53624;0.000;0.000;2023-02-01T02:53:47;8.80;94.80
66710;DHT22;53624;0.000;0.000;2023-02-01T02:56:33;8.80;94.80
66710;DHT22;53624;0.000;0.000;2023-02-01T02:59:20;8.70;94.80
66710;DHT22;53624;0.000;0.000;2023-02-01T03:02:05;8.70;94.80
66710;DHT22;53624;0.000;0.000;2023-02-01T03:04:52;8.70;94.90
66710;DHT22;53624;0.000;0.000;2023-02-01T03:10:12;8.80;94.90
66710;DHT22;53624;0.000;0.000;2023-02-01T03:12:43;8.80;94.90
66710;DHT22;53624;0.000;0.000;2023-02-01T03:15:26;8.70;94.90
66710;DHT22;53624;0.000;0.000;2023-02-01T03:17:56;8.70;94.90
66710;DHT22;53624;0.000;0.000;2023-02-01T03:20:25;8.70;94.90
66710;DHT22;53624;0.000;0.000;2023-02-01T03:22:53;8.70;94.90
66710;DHT22;53624;0.000;0.000;2023-02-01T03:25:22;8.70;94.90
66710;DHT22;53624;0.000;0.000;2023-02-01T03:27:53;8.80;94.90
66710;DHT22;53624;0.000;0.000;2023-02-01T03:30:23;8.70;94.90
66710;DHT22;53624;0.000;0.000;2023-02-01T03:32:54;8.70;94.90
66710;DHT22;53624;0.000;0.000;2023-02-01T03:35:30;8.70;94.90
66710;DHT22;53624;0.000;0.000;2023-02-01T03:38:01;8.70;94.90
66710;DHT22;53624;0.000;0.000;2023-02-01T03:40:32;8.70;95.00
66710;DHT22;53624;0.000;0.000;2023-02-01T03:43:01;8.70;95.00
66710;DHT22;53624;0.000;0.000;2023-02-01T03:45:33;8.70;95.00
66710;DHT22;53624;0.000;0.000;2023-02-01T03:48:01;8.70;95.00
66710;DHT22;53624;0.000;0.000;2023-02-01T03:50:29;8.70;95.10
66710;DHT22;53624;0.000;0.000;2023-02-01T03:52:58;8.70;95.10
66710;DHT22;53624;0.000;0.000;2023-02-01T03:55:26;8.70;95.10
66710;DHT22;53624;0.000;0.000;2023-02-01T03:57:57;8.70;95.10
66710;DHT22;53624;0.000;0.000;2023-02-01T04:00:26;8.70;95.10
66710;DHT22;53624;0.000;0.000;2023-02-01T04:02:55;8.70;95.10
66710;DHT22;53624;0.000;0.000;2023-02-01T04:05:23;8.70;95.10
66710;DHT22;53624;0.000;0.000;2023-02-01T04:08:05;8.70;95.10
66710;DHT22;53624;0.000;0.000;2023-02-01T04:10:33;8.70;95.10
66710;DHT22;53624;0.000;0.000;2023-02-01T04:13:02;8.70;95.10
66710;DHT22;53624;0.000;0.000;2023-02-01T04:15:29;8.70;95.10
66710;DHT22;53624;0.000;0.000;2023-02-01T04:17:57;8.70;95.10
66710;DHT22;53624;0.000;0.000;2023-02-01T04:20:24;8.60;95.10
66710;DHT22;53624;0.000;0.000;2023-02-01T04:22:51;8.60;95.10
66710;DHT22;53624;0.000;0.000;2023-02-01T04:25:19;8.60;95.10
66710;DHT22;53624;0.000;0.000;2023-02-01T04:27:47;8.70;95.10
66710;DHT22;53624;0.000;0.000;2023-02-01T04:30:16;8.60;95.10
66710;DHT22;53624;0.000;0.000;2023-02-01T04:32:44;8.60;95.20
66710;DHT22;53624;0.000;0.000;2023-02-01T04:35:11;8.60;95.20
66710;DHT22;53624;0.000;0.000;2023-02-01T04:37:39;8.60;95.20
66710;DHT22;53624;0.000;0.000;2023-02-01T04:40:07;8.60;95.20
66710;DHT22;53624;0.000;0.000;2023-02-01T04:42:35;8.60;95.20
66710;DHT22;53624;0.000;0.000;2023-02-01T04:45:02;8.60;95.20
66710;DHT22;53624;0.000;0.000;2023-02-01T04:47:31;8.60;95.20
66710;DHT22;53624;0.000;0.000;2023-02-01T04:49:59;8.60;95.20
66710;DHT22;53624;0.000;0.000;2023-02-01T04:52:26;8.60;95.20
66710;DHT22;53624;0.000;0.000;2023-02-01T04:54:54;8.60;95.20
66710;DHT22;53624;0.000;0.000;2023-02-01T04:57:23;8.60;95.20
66710;DHT22;53624;0.000;0.000;2023-02-01T04:59:50;8.60;95.20
66710;DHT22;53624;0.000;0.000;2023-02-01T05:02:18;8.60;95.20
66710;DHT22;53624;0.000;0.000;2023-02-01T05:04:47;8.60;95.20
66710;DHT22;53624;0.000;0.000;2023-02-01T05:07:14;8.60;95.20
66710;DHT22;53624;0.000;0.000;2023-02-01T05:09:42;8.50;95.20
66710;DHT22;53624;0.000;0.000;2023-02-01T05:12:09;8.60;95.20
66710;DHT22;53624;0.000;0.000;2023-02-01T05:14:54;8.50;95.20
66710;DHT22;53624;0.000;0.000;2023-02-01T05:17:21;8.50;95.20
66710;DHT22;53624;0.000;0.000;2023-02-01T05:19:50;8.50;95.20
66710;DHT22;53624;0.000;0.000;2023-02-01T05:22:18;8.50;95.20
66710;DHT22;53624;0.000;0.000;2023-02-01T05:24:45;8.50;95.20
66710;DHT22;53624;0.000;0.000;2023-02-01T05:27:13;8.50;95.20
66710;DHT22;53624;0.000;0.000;2023-02-01T05:29:40;8.50;95.20
66710;DHT22;53624;0.000;0.000;2023-02-01T05:32:09;8.50;95.20
66710;DHT22;53624;0.000;0.000;2023-02-01T05:34:36;8.50;95.20
66710;DHT22;53624;0.000;0.000;2023-02-01T05:37:05;8.50;95.20
66710;DHT22;53624;0.000;0.000;2023-02-01T05:39:33;8.50;95.20
66710;DHT22;53624;0.000;0.000;2023-02-01T05:42:00;8.50;95.20
66710;DHT22;53624;0.000;0.000;2023-02-01T05:44:28;8.50;95.20
66710;DHT22;53624;0.000;0.000;2023-02-01T05:46:55;8.50;95.20
66710;DHT22;53624;0.000;0.000;2023-02-01T05:49:23;8.50;95.20
66710;DHT22;53624;0.000;0.000;2023-02-01T05:51:50;8.50;95.30
66710;DHT22;53624;0.000;0.000;2023-02-01T05:54:19;8.50;95.30
66710;DHT22;53624;0.000;0.000;2023-02-01T05:56:46;8.50;95.30
66710;DHT22;53624;0.000;0.000;2023-02-01T05:59:14;8.50;95.30
66710;DHT22;53624;0.000;0.000;2023-02-01T06:01:41;8.50;95.30
66710;DHT22;53624;0.000;0.000;2023-02-01T06:04:09;8.50;95.30
66710;DHT22;53624;0.000;0.000;2023-02-01T06:06:36;8.50;95.30
66710;DHT22;53624;0.000;0.000;2023-02-01T06:09:04;8.40;95.20
66710;DHT22;53624;0.000;0.000;2023-02-01T06:11:33;8.50;95.20
66710;DHT22;53624;0.000;0.000;2023-02-01T06:14:00;8.50;95.20
66710;DHT22;53624;0.000;0.000;2023-02-01T06:16:28;8.40;95.20
66710;DHT22;53624;0.000;0.000;2023-02-01T06:18:55;8.40;95.20
66710;DHT22;53624;0.000;0.000;2023-02-01T06:21:22;8.40;95.20
66710;DHT22;53624;0.000;0.000;2023-02-01T06:23:50;8.40;95.20
66710;DHT22;53624;0.000;0.000;2023-02-01T06:26:18;8.40;95.20
66710;DHT22;53624;0.000;0.000;2023-02-01T06:28:47;8.40;95.20
66710;DHT22;53624;0.000;0.000;2023-02-01T06:31:15;8.40;95.20
66710;DHT22;53624;0.000;0.000;2023-02-01T06:33:42;8.40;95.20
66710;DHT22;53624;0.000;0.000;2023-02-01T06:36:10;8.40;95.20
66710;DHT22;53624;0.000;0.000;2023-02-01T06:38:38;8.40;95.20
66710;DHT22;53624;0.000;0.000;2023-02-01T06:41:06;8.50;95.20
66710;DHT22;53624;0.000;0.000;2023-02-01T06:43:33;8.40;95.20
66710;DHT22;53624;0.000;0.000;2023-02-01T06:46:03;8.40;95.20
66710;DHT22;53624;0.000;0.000;2023-02-01T06:48:31;8.40;95.20
66710;DHT22;53624;0.000;0.000;2023-02-01T06:50:59;8.40;95.20
66710;DHT22;53624;0.000;0.000;2023-02-01T06:53:27;8.40;95.10
66710;DHT22;53624;0.000;0.000;2023-02-01T06:55:55;8.40;95.10
66710;DHT22;53624;0.000;0.000;2023-02-01T06:58:23;8.40;95.10
66710;DHT22;53624;0.000;0.000;2023-02-01T07:00:50;8.40;95.10
66710;DHT22;53624;0.000;0.000;2023-02-01T07:03:21;8.40;95.10
66710;DHT22;53624;0.000;0.000;2023-02-01T07:05:48;8.40;95.10
66710;DHT22;53624;0.000;0.000;2023-02-01T07:08:16;8.40;95.10
66710;DHT22;53624;0.000;0.000;2023-02-01T07:10:43;8.40;95.10
66710;DHT22;53624;0.000;0.000;2023-02-01T07:13:11;8.40;95.10
66710;DHT22;53624;0.000;0.000;2023-02-01T07:15:38;8.40;95.10
66710;DHT22;53624;0.000;0.000;2023-02-01T07:18:06;8.40;95.00
66710;DHT22;53624;0.000;0.000;2023-02-01T07:20:35;8.40;95.00
66710;DHT22;53624;0.000;0.000;2023-02-01T07:23:02;8.40;95.00
66710;DHT22;53624;0.000;0.000;2023-02-01T07:25:29;8.40;95.00
66710;DHT22;53624;0.000;0.000;2023-02-01T07:27:57;8.40;95.00
66710;DHT22;53624;0.000;0.000;2023-02-01T07:30:24;8.40;95.00
66710;DHT22;53624;0.000;0.000;2023-02-01T07:32:53;8.40;95.00
66710;DHT22;53624;0.000;0.000;2023-02-01T07:35:20;8.40;95.00
66710;DHT22;53624;0.000;0.000;2023-02-01T07:37:49;8.40;95.00
66710;DHT22;53624;0.000;0.000;2023-02-01T07:40:17;8.40;95.00
66710;DHT22;53624;0.000;0.000;2023-02-01T07:42:50;8.40;95.00
66710;DHT22;53624;0.000;0.000;2023-02-01T07:45:18;8.40;95.00
66710;DHT22;53624;0.000;0.000;2023-02-01T07:47:46;8.40;95.00
66710;DHT22;53624;0.000;0.000;2023-02-01T07:50:13;8.40;95.00
66710;DHT22;53624;0.000;0.000;2023-02-01T07:52:41;8.40;95.00
66710;DHT22;53624;0.000;0.000;2023-02-01T07:55:10;8.40;95.00
66710;DHT22;53624;0.000;0.000;2023-02-01T07:57:37;8.40;95.00
66710;DHT22;53624;0.000;0.000;2023-02-01T08:00:05;8.40;95.00
66710;DHT22;53624;0.000;0.000;2023-02-01T08:02:50;8.50;95.00
66710;DHT22;53624;0.000;0.000;2023-02-01T08:05:18;8.50;95.00
66710;DHT22;53624;0.000;0.000;2023-02-01T08:07:48;8.50;95.00
66710;DHT22;53624;0.000;0.000;2023-02-01T08:10:17;8.50;95.00
66710;DHT22;53624;0.000;0.000;2023-02-01T08:12:45;8.50;95.00
66710;DHT22;53624;0.000;0.000;2023-02-01T08:15:13;8.50;95.00
66710;DHT22;53624;0.000;0.000;2023-02-01T08:17:45;8.50;95.00
66710;DHT22;53624;0.000;0.000;2023-02-01T08:20:13;8.60;95.00
66710;DHT22;53624;0.000;0.000;2023-02-01T08:22:40;8.60;95.00
66710;DHT22;53624;0.000;0.000;2023-02-01T08:25:08;8.60;94.90
66710;DHT22;53624;0.000;0.000;2023-02-01T08:27:37;8.60;95.00
66710;DHT22;53624;0.000;0.000;2023-02-01T08:30:05;8.70;94.90
66710;DHT22;53624;0.000;0.000;2023-02-01T08:32:34;8.70;94.90
66710;DHT22;53624;0.000;0.000;2023-02-01T08:35:01;8.70;94.90
66710;DHT22;53624;0.000;0.000;2023-02-01T08:37:29;8.80;94.90
66710;DHT22;53624;0.000;0.000;2023-02-01T08:39:56;8.80;94.90
66710;DHT22;53624;0.000;0.000;2023-02-01T08:42:24;8.80;94.80
66710;DHT22;53624;0.000;0.000;2023-02-01T08:45:10;8.90;94.80
66710;DHT22;53624;0.000;0.000;2023-02-01T08:47:38;9.00;94.80
66710;DHT22;53624;0.000;0.000;2023-02-01T08:50:06;9.10;94.70
66710;DHT22;53624;0.000;0.000;2023-02-01T08:52:33;9.20;94.60
66710;DHT22;53624;0.000;0.000;2023-02-01T08:55:01;9.30;94.40
66710;DHT22;53624;0.000;0.000;2023-02-01T08:57:28;9.50;94.30
66710;DHT22;53624;0.000;0.000;2023-02-01T08:59:56;9.60;94.30
66710;DHT22;53624;0.000;0.000;2023-02-01T09:02:25;9.70;94.30
66710;DHT22;53624;0.000;0.000;2023-02-01T09:04:53;9.90;94.20
66710;DHT22;53624;0.000;0.000;2023-02-01T09:07:20;10.10;93.90
66710;DHT22;53624;0.000;0.000;2023-02-01T09:09:48;10.10;93.90
66710;DHT22;53624;0.000;0.000;2023-02-01T09:12:15;10.10;93.90
66710;DHT22;53624;0.000;0.000;2023-02-01T09:14:43;10.10;94.00
66710;DHT22;53624;0.000;0.000;2023-02-01T09:17:10;10.10;94.10
66710;DHT22;53624;0.000;0.000;2023-02-01T09:19:40;10.30;94.10
66710;DHT22;53624;0.000;0.000;2023-02-01T09:22:08;10.60;93.70
66710;DHT22;53624;0.000;0.000;2023-02-01T09:24:35;11.30;93.00
66710;DHT22;53624;0.000;0.000;2023-02-01T09:27:03;11.60;92.60
66710;DHT22;53624;0.000;0.000;2023-02-01T09:29:30;11.80;92.50
66710;DHT22;53624;0.000;0.000;2023-02-01T09:31:58;12.00;92.20
66710;DHT22;53624;0.000;0.000;2023-02-01T09:34:26;12.00;92.40
66710;DHT22;53624;0.000;0.000;2023-02-01T09:36:55;11.90;92.60
66710;DHT22;53624;0.000;0.000;2023-02-01T09:39:22;12.00;92.70
66710;DHT22;53624;0.000;0.000;2023-02-01T09:41:53;12.00;92.80
66710;DHT22;53624;0.000;0.000;2023-02-01T09:44:34;12.20;92.70
66710;DHT22;53624;0.000;0.000;2023-02-01T09:47:09;12.50;92.50
66710;DHT22;53624;0.000;0.000;2023-02-01T09:49:39;12.60;92.50
66710;DHT22;53624;0.000;0.000;2023-02-01T09:52:13;12.80;92.30
66710;DHT22;53624;0.000;0.000;2023-02-01T09:54:42;13.00;92.10
66710;DHT22;53624;0.000;0.000;2023-02-01T09:57:14;13.20;92.00
66710;DHT22;53624;0.000;0.000;2023-02-01T09:59:44;13.20;92.00
66710;DHT22;53624;0.000;0.000;2023-02-01T10:02:14;13.10;92.10
66710;DHT22;53624;0.000;0.000;2023-02-01T10:04:43;12.90;92.30
66710;DHT22;53624;0.000;0.000;2023-02-01T10:07:18;12.90;92.50
66710;DHT22;53624;0.000;0.000;2023-02-01T10:09:50;12.90;92.50
66710;DHT22;53624;0.000;0.000;2023-02-01T10:15:09;13.10;92.30
66710;DHT22;53624;0.000;0.000;2023-02-01T10:17:45;13.10;92.20
66710;DHT22;53624;0.000;0.000;2023-02-01T10:20:17;13.10;92.30
66710;DHT22;53624;0.000;0.000;2023-02-01T10:22:50;13.10;92.30
66710;DHT22;53624;0.000;0.000;2023-02-01T10:25:20;13.00;92.40
66710;DHT22;53624;0.000;0.000;2023-02-01T10:27:50;12.90;92.50
66710;DHT22;53624;0.000;0.000;2023-02-01T10:30:18;12.90;92.50
66710;DHT22;53624;0.000;0.000;2023-02-01T10:32:47;13.00;92.50
66710;DHT22;53624;0.000;0.000;2023-02-01T10:35:17;13.00;92.60
66710;DHT22;53624;0.000;0.000;2023-02-01T10:37:44;12.90;92.60
66710;DHT22;53624;0.000;0.000;2023-02-01T10:40:16;12.90;92.80
66710;DHT22;53624;0.000;0.000;2023-02-01T10:42:45;12.90;92.90
66710;DHT22;53624;0.000;0.000;2023-02-01T10:45:13;12.90;92.80
66710;DHT22;53624;0.000;0.000;2023-02-01T10:47:42;12.80;92.90
66710;DHT22;53624;0.000;0.000;2023-02-01T10:50:13;12.80;93.00
66710;DHT22;53624;0.000;0.000;2023-02-01T10:52:43;12.80;93.00
66710;DHT22;53624;0.000;0.000;2023-02-01T10:58:15;12.80;93.10
66710;DHT22;53624;0.000;0.000;2023-02-01T11:00:44;12.80;93.10
66710;DHT22;53624;0.000;0.000;2023-02-01T11:03:34;12.80;93.10
66710;DHT22;53624;0.000;0.000;2023-02-01T11:06:09;12.90;92.90
66710;DHT22;53624;0.000;0.000;2023-02-01T11:08:42;13.00;92.80
66710;DHT22;53624;0.000;0.000;2023-02-01T11:11:10;13.10;92.70
66710;DHT22;53624;0.000;0.000;2023-02-01T11:13:40;13.40;92.60
66710;DHT22;53624;0.000;0.000;2023-02-01T11:16:11;13.80;92.10
66710;DHT22;53624;0.000;0.000;2023-02-01T11:18:39;14.10;91.70
66710;DHT22;53624;0.000;0.000;2023-02-01T11:21:07;14.40;91.50
66710;DHT22;53624;0.000;0.000;2023-02-01T11:23:39;14.80;91.10
66710;DHT22;53624;0.000;0.000;2023-02-01T11:26:10;15.10;91.00
66710;DHT22;53624;0.000;0.000;2023-02-01T11:28:40;15.40;90.80
66710;DHT22;53624;0.000;0.000;2023-02-01T11:31:11;15.70;90.60
66710;DHT22;53624;0.000;0.000;2023-02-01T11:33:43;16.00;90.50
66710;DHT22;53624;0.000;0.000;2023-02-01T11:36:13;16.20;90.30
66710;DHT22;53624;0.000;0.000;2023-02-01T11:38:45;16.40;90.20
66710;DHT22;53624;0.000;0.000;2023-02-01T11:41:14;16.70;90.10
66710;DHT22;53624;0.000;0.000;2023-02-01T11:43:53;16.80;90.00
66710;DHT22;53624;0.000;0.000;2023-02-01T11:46:22;17.00;90.00
66710;DHT22;53624;0.000;0.000;2023-02-01T11:48:51;17.20;89.70
66710;DHT22;53624;0.000;0.000;2023-02-01T11:51:41;17.50;89.70
66710;DHT22;53624;0.000;0.000;2023-02-01T11:54:19;17.70;89.40
66710;DHT22;53624;0.000;0.000;2023-02-01T11:56:49;17.80;89.10
66710;DHT22;53624;0.000;0.000;2023-02-01T11:59:29;18.00;88.90
66710;DHT22;53624;0.000;0.000;2023-02-01T12:02:02;18.20;88.60
66710;DHT22;53624;0.000;0.000;2023-02-01T12:07:28;17.80;89.50
66710;DHT22;53624;0.000;0.000;2023-02-01T12:10:02;17.90;89.90
66710;DHT22;53624;0.000;0.000;2023-02-01T12:12:33;18.20;88.90
66710;DHT22;53624;0.000;0.000;2023-02-01T12:15:11;18.60;88.20
66710;DHT22;53624;0.000;0.000;2023-02-01T12:17:49;18.30;89.00
66710;DHT22;53624;0.000;0.000;2023-02-01T12:20:21;18.40;88.20
66710;DHT22;53624;0.000;0.000;2023-02-01T12:22:54;18.50;88.80
66710;DHT22;53624;0.000;0.000;2023-02-01T12:25:26;18.70;88.10
66710;DHT22;53624;0.000;0.000;2023-02-01T12:30:46;18.60;88.60
66710;DHT22;53624;0.000;0.000;2023-02-01T12:33:17;18.60;89.00
66710;DHT22;53624;0.000;0.000;2023-02-01T12:35:52;18.40;89.30
66710;DHT22;53624;0.000;0.000;2023-02-01T12:38:36;18.20;89.70
66710;DHT22;53624;0.000;0.000;2023-02-01T12:41:40;18.10;89.90
66710;DHT22;53624;0.000;0.000;2023-02-01T12:44:38;17.90;90.20
66710;DHT22;53624;0.000;0.000;2023-02-01T12:47:16;17.50;90.40
66710;DHT22;53624;0.000;0.000;2023-02-01T12:50:00;17.40;90.70
66710;DHT22;53624;0.000;0.000;2023-02-01T12:52:46;17.30;90.80
66710;DHT22;53624;0.000;0.000;2023-02-01T12:55:16;17.50;90.60
66710;DHT22;53624;0.000;0.000;2023-02-01T12:57:46;18.00;90.00
66710;DHT22;53624;0.000;0.000;2023-02-01T13:00:17;18.50;89.20
66710;DHT22;53624;0.000;0.000;2023-02-01T13:02:51;18.80;88.90
66710;DHT22;53624;0.000;0.000;2023-02-01T13:05:21;19.10;88.10
66710;DHT22;53624;0.000;0.000;2023-02-01T13:07:50;19.40;87.30
66710;DHT22;53624;0.000;0.000;2023-02-01T13:10:21;19.70;86.90
66710;DHT22;53624;0.000;0.000;2023-02-01T13:12:51;19.90;86.70
66710;DHT22;53624;0.000;0.000;2023-02-01T13:15:20;20.00;86.30
66710;DHT22;53624;0.000;0.000;2023-02-01T13:17:50;19.70;86.50
66710;DHT22;53624;0.000;0.000;2023-02-01T13:20:21;19.60;86.70
66710;DHT22;53624;0.000;0.000;2023-02-01T13:22:50;19.20;88.10
66710;DHT22;53624;0.000;0.000;2023-02-01T13:25:23;18.80;88.40
66710;DHT22;53624;0.000;0.000;2023-02-01T13:27:53;18.50;89.40
66710;DHT22;53624;0.000;0.000;2023-02-01T13:30:22;18.50;89.80
66710;DHT22;53624;0.000;0.000;2023-02-01T13:35:47;18.40;90.30
66710;DHT22;53624;0.000;0.000;2023-02-01T13:41:06;18.80;88.90
66710;DHT22;53624;0.000;0.000;2023-02-01T13:43:39;19.20;87.70
66710;DHT22;53624;0.000;0.000;2023-02-01T13:46:08;19.40;87.40
66710;DHT22;53624;0.000;0.000;2023-02-01T13:48:40;19.10;88.20
66710;DHT22;53624;0.000;0.000;2023-02-01T13:51:10;18.80;89.00
66710;DHT22;53624;0.000;0.000;2023-02-01T13:53:43;18.60;89.30
66710;DHT22;53624;0.000;0.000;2023-02-01T13:56:12;18.50;89.60
66710;DHT22;53624;0.000;0.000;2023-02-01T13:58:42;18.60;89.10
66710;DHT22;53624;0.000;0.000;2023-02-01T14:03:59;18.20;90.10
66710;DHT22;53624;0.000;0.000;2023-02-01T14:09:30;17.80;90.60
66710;DHT22;53624;0.000;0.000;2023-02-01T14:12:41;17.60;90.70
66710;DHT22;53624;0.000;0.000;2023-02-01T14:15:16;17.50;91.00
66710;DHT22;53624;0.000;0.000;2023-02-01T14:17:44;17.30;91.10
66710;DHT22;53624;0.000;0.000;2023-02-01T14:23:12;17.00;91.40
66710;DHT22;53624;0.000;0.000;2023-02-01T14:25:42;16.90;91.50
66710;DHT22;53624;0.000;0.000;2023-02-01T14:28:11;16.80;91.50
66710;DHT22;53624;0.000;0.000;2023-02-01T14:30:41;16.70;91.60
66710;DHT22;53624;0.000;0.000;2023-02-01T14:33:17;16.60;91.60
66710;DHT22;53624;0.000;0.000;2023-02-01T14:35:53;16.40;91.70
66710;DHT22;53624;0.000;0.000;2023-02-01T14:38:23;16.30;91.90
66710;DHT22;53624;0.000;0.000;2023-02-01T14:40:52;16.20;92.00
66710;DHT22;53624;0.000;0.000;2023-02-01T14:46:02;16.00;92.10
66710;DHT22;53624;0.000;0.000;2023-02-01T14:48:41;16.00;92.20
66710;DHT22;53624;0.000;0.000;2023-02-01T14:51:11;15.90;92.20
66710;DHT22;53624;0.000;0.000;2023-02-01T14:53:40;15.80;92.20
66710;DHT22;53624;0.000;0.000;2023-02-01T14:56:11;15.80;92.20
66710;DHT22;53624;0.000;0.000;2023-02-01T14:58:41;15.70;92.30
66710;DHT22;53624;0.000;0.000;2023-02-01T15:01:16;15.60;92.40
66710;DHT22;53624;0.000;0.000;2023-02-01T15:03:47;15.60;92.40
66710;DHT22;53624;0.000;0.000;2023-02-01T15:09:03;15.40;92.50
66710;DHT22;53624;0.000;0.000;2023-02-01T15:11:32;15.30;92.50
66710;DHT22;53624;0.000;0.000;2023-02-01T15:14:20;15.20;92.60
66710;DHT22;53624;0.000;0.000;2023-02-01T15:16:48;15.20;92.70
66710;DHT22;53624;0.000;0.000;2023-02-01T15:19:20;15.10;92.70
66710;DHT22;53624;0.000;0.000;2023-02-01T15:21:48;15.00;92.60
66710;DHT22;53624;0.000;0.000;2023-02-01T15:24:21;15.00;92.70
66710;DHT22;53624;0.000;0.000;2023-02-01T15:26:50;14.90;92.80
66710;DHT22;53624;0.000;0.000;2023-02-01T15:29:18;14.80;92.70
66710;DHT22;53624;0.000;0.000;2023-02-01T15:31:47;14.80;92.80
66710;DHT22;53624;0.000;0.000;2023-02-01T15:34:15;14.70;92.90
66710;DHT22;53624;0.000;0.000;2023-02-01T15:36:43;14.60;92.90
66710;DHT22;53624;0.000;0.000;2023-02-01T15:39:12;14.50;92.90
66710;DHT22;53624;0.000;0.000;2023-02-01T15:41:40;14.50;93.00
66710;DHT22;53624;0.000;0.000;2023-02-01T15:44:12;14.40;93.00
66710;DHT22;53624;0.000;0.000;2023-02-01T15:46:42;14.40;93.00
66710;DHT22;53624;0.000;0.000;2023-02-01T15:49:23;14.30;93.00
66710;DHT22;53624;0.000;0.000;2023-02-01T15:51:51;14.30;93.10
66710;DHT22;53624;0.000;0.000;2023-02-01T15:54:20;14.20;93.10
66710;DHT22;53624;0.000;0.000;2023-02-01T15:56:51;14.20;93.10
66710;DHT22;53624;0.000;0.000;2023-02-01T15:59:22;14.10;93.10
66710;DHT22;53624;0.000;0.000;2023-02-01T16:01:50;14.10;93.10
66710;DHT22;53624;0.000;0.000;2023-02-01T16:04:19;14.00;93.10
66710;DHT22;53624;0.000;0.000;2023-02-01T16:06:48;13.90;93.00
66710;DHT22;53624;0.000;0.000;2023-02-01T16:09:16;13.90;93.00
66710;DHT22;53624;0.000;0.000;2023-02-01T16:11:49;13.80;93.10
66710;DHT22;53624;0.000;0.000;2023-02-01T16:14:16;13.80;93.00
66710;DHT22;53624;0.000;0.000;2023-02-01T16:16:45;13.70;93.00
66710;DHT22;53624;0.000;0.000;2023-02-01T16:19:13;13.70;93.10
66710;DHT22;53624;0.000;0.000;2023-02-01T16:21:40;13.60;93.00
66710;DHT22;53624;0.000;0.000;2023-02-01T16:24:07;13.60;93.00
66710;DHT22;53624;0.000;0.000;2023-02-01T16:26:35;13.50;92.90
66710;DHT22;53624;0.000;0.000;2023-02-01T16:29:03;13.40;92.90
66710;DHT22;53624;0.000;0.000;2023-02-01T16:31:33;13.40;92.90
66710;DHT22;53624;0.000;0.000;2023-02-01T16:34:02;13.40;92.90
66710;DHT22;53624;0.000;0.000;2023-02-01T16:36:31;13.30;92.90
66710;DHT22;53624;0.000;0.000;2023-02-01T16:38:58;13.30;92.90
66710;DHT22;53624;0.000;0.000;2023-02-01T16:41:26;13.20;92.70
66710;DHT22;53624;0.000;0.000;2023-02-01T16:43:54;13.20;92.80
66710;DHT22;53624;0.000;0.000;2023-02-01T16:46:23;13.20;92.90
66710;DHT22;53624;0.000;0.000;2023-02-01T16:48:52;13.10;92.70
66710;DHT22;53624;0.000;0.000;2023-02-01T16:51:21;13.10;92.70